createdAt,value
2017-05-19T00:00:22.929Z,1001.48
2017-05-19T00:01:24.190Z,1001.45
2017-05-19T00:02:25.501Z,1001.42
2017-05-19T00:03:26.772Z,1001.42
2017-05-19T00:04:28.009Z,1001.44
2017-05-19T00:05:29.247Z,1001.42
2017-05-19T00:06:30.498Z,1001.37
2017-05-19T00:07:31.751Z,1001.32
2017-05-19T00:08:32.984Z,1001.37
2017-05-19T00:09:34.246Z,1001.35
2017-05-19T00:10:35.498Z,1001.36
2017-05-19T00:11:36.766Z,1001.39
2017-05-19T00:12:37.988Z,1001.32
2017-05-19T00:13:39.239Z,1001.3
2017-05-19T00:14:40.486Z,1001.27
2017-05-19T00:15:41.837Z,1001.26
2017-05-19T00:16:43.076Z,1001.18
2017-05-19T00:17:44.327Z,1001.21
2017-05-19T00:18:45.576Z,1001.18
2017-05-19T00:19:46.835Z,1001.09
2017-05-19T00:20:48.088Z,1001.13
2017-05-19T00:21:49.571Z,1001.1
2017-05-19T00:22:50.800Z,1001.15
2017-05-19T00:23:52.037Z,1001.15
2017-05-19T00:24:53.281Z,1001.09
2017-05-19T00:25:54.546Z,1001.08
2017-05-19T00:26:55.764Z,1001.02
2017-05-19T00:27:57.021Z,1001.07
2017-05-19T00:28:58.272Z,1001.04
2017-05-19T00:29:59.542Z,1001.04
2017-05-19T00:31:00.772Z,1001.04
2017-05-19T00:32:02.010Z,1001.05
2017-05-19T00:33:03.259Z,1000.98
2017-05-19T00:34:04.614Z,1001.01
2017-05-19T00:35:05.989Z,1001.03
2017-05-19T00:36:07.243Z,1001.03
2017-05-19T00:37:08.514Z,1001
2017-05-19T00:38:09.752Z,1001.03
2017-05-19T00:39:10.976Z,1000.98
2017-05-19T00:40:12.306Z,1001.04
2017-05-19T00:41:13.593Z,1001.02
2017-05-19T00:42:14.868Z,1001.04
2017-05-19T00:43:16.099Z,1001.04
2017-05-19T00:44:17.348Z,1001.09
2017-05-19T00:45:18.659Z,1001.08
2017-05-19T00:46:19.984Z,1001.1
2017-05-19T00:47:21.255Z,1001.07
2017-05-19T00:48:22.508Z,1001.04
2017-05-19T00:49:23.752Z,1001
2017-05-19T00:50:25.037Z,1000.95
2017-05-19T00:51:26.363Z,1001
2017-05-19T00:52:27.782Z,1000.98
2017-05-19T00:53:29.013Z,1001.01
2017-05-19T00:54:30.288Z,1000.99
2017-05-19T00:55:31.508Z,1000.95
2017-05-19T00:56:32.750Z,1000.94
2017-05-19T00:57:34.009Z,1000.94
2017-05-19T00:58:35.286Z,1000.95
2017-05-19T00:59:36.529Z,1000.95
2017-05-19T01:00:37.770Z,1000.89
2017-05-19T01:01:39.000Z,1000.98
2017-05-19T01:02:40.268Z,1000.95
2017-05-19T01:03:41.498Z,1000.95
2017-05-19T01:04:42.742Z,1000.93
2017-05-19T01:05:44.077Z,1000.91
2017-05-19T01:06:45.320Z,1000.89
2017-05-19T01:07:46.570Z,1000.91
2017-05-19T01:08:47.825Z,1000.9
2017-05-19T01:09:49.076Z,1000.88
2017-05-19T01:10:50.354Z,1000.86
2017-05-19T01:11:51.656Z,1000.85
2017-05-19T01:12:52.910Z,1000.82
2017-05-19T01:13:54.153Z,1000.8
2017-05-19T01:14:55.404Z,1000.79
2017-05-19T01:15:56.668Z,1000.83
2017-05-19T01:16:57.899Z,1000.78
2017-05-19T01:17:59.209Z,1000.81
2017-05-19T01:19:00.403Z,1000.8
2017-05-19T01:20:01.755Z,1000.82
2017-05-19T01:21:03.003Z,1000.84
2017-05-19T01:22:04.253Z,1000.87
2017-05-19T01:23:05.543Z,1000.87
2017-05-19T01:24:06.743Z,1000.88
2017-05-19T01:25:08.003Z,1000.84
2017-05-19T01:26:09.259Z,1000.9
2017-05-19T01:27:10.496Z,1000.81
2017-05-19T01:28:11.764Z,1000.79
2017-05-19T01:29:13.012Z,1000.92
2017-05-19T01:30:14.237Z,1000.86
2017-05-19T01:31:15.585Z,1000.87
2017-05-19T01:32:16.863Z,1000.87
2017-05-19T01:33:18.089Z,1000.88
2017-05-19T01:34:19.361Z,1000.87
2017-05-19T01:35:20.591Z,1000.88
2017-05-19T01:36:21.989Z,1000.89
2017-05-19T01:37:23.287Z,1000.84
2017-05-19T01:38:24.519Z,1000.86
2017-05-19T01:39:25.759Z,1000.9
2017-05-19T01:40:27.033Z,1000.93
2017-05-19T01:41:28.283Z,1000.94
2017-05-19T01:42:29.521Z,1000.94
2017-05-19T01:43:30.761Z,1001.03
2017-05-19T01:44:32.010Z,1001.02
2017-05-19T01:45:33.260Z,1001.04
2017-05-19T01:46:34.521Z,1001.14
2017-05-19T01:47:35.776Z,1001.11
2017-05-19T01:48:36.987Z,1001.09
2017-05-19T01:49:38.349Z,1001.14
2017-05-19T01:50:39.855Z,1001.13
2017-05-19T01:51:41.114Z,1001.16
2017-05-19T01:52:42.352Z,1001.19
2017-05-19T01:53:43.699Z,1001.22
2017-05-19T01:54:44.957Z,1001.23
2017-05-19T01:55:46.218Z,1001.21
2017-05-19T01:56:47.458Z,1001.2
2017-05-19T01:57:48.751Z,1001.19
2017-05-19T01:58:49.970Z,1001.22
2017-05-19T01:59:51.219Z,1001.21
2017-05-19T02:00:52.471Z,1001.19
2017-05-19T02:01:53.766Z,1001.22
2017-05-19T02:02:55.044Z,1001.24
2017-05-19T02:03:56.272Z,1001.25
2017-05-19T02:04:57.513Z,1001.25
2017-05-19T02:05:58.764Z,1001.19
2017-05-19T02:07:00.021Z,1001.23
2017-05-19T02:08:01.575Z,1001.22
2017-05-19T02:09:02.870Z,1001.25
2017-05-19T02:10:04.098Z,1001.21
2017-05-19T02:11:05.347Z,1001.18
2017-05-19T02:12:06.618Z,1001.16
2017-05-19T02:13:07.895Z,1001.14
2017-05-19T02:14:09.198Z,1001.15
2017-05-19T02:15:10.445Z,1001.21
2017-05-19T02:16:11.683Z,1001.23
2017-05-19T02:17:12.957Z,1001.2
2017-05-19T02:18:14.221Z,1001.28
2017-05-19T02:19:15.464Z,1001.3
2017-05-19T02:20:16.825Z,1001.18
2017-05-19T02:21:18.076Z,1001.27
2017-05-19T02:22:19.327Z,1001.25
2017-05-19T02:23:20.564Z,1001.23
2017-05-19T02:24:21.806Z,1001.25
2017-05-19T02:25:23.064Z,1001.21
2017-05-19T02:26:24.537Z,1001.18
2017-05-19T02:27:25.764Z,1001.16
2017-05-19T02:28:27.028Z,1001.2
2017-05-19T02:29:28.380Z,1001.15
2017-05-19T02:30:29.709Z,1001.2
2017-05-19T02:31:31.015Z,1001.18
2017-05-19T02:32:32.259Z,1001.19
2017-05-19T02:33:33.521Z,1001.17
2017-05-19T02:34:34.780Z,1001.23
2017-05-19T02:35:36.026Z,1001.14
2017-05-19T02:36:37.317Z,1001.15
2017-05-19T02:37:38.563Z,1001.14
2017-05-19T02:38:39.881Z,1001.17
2017-05-19T02:39:41.124Z,1001.09
2017-05-19T02:40:42.400Z,1001.07
2017-05-19T02:41:43.759Z,1001.06
2017-05-19T02:42:44.983Z,1001.07
2017-05-19T02:43:46.259Z,1001.01
2017-05-19T02:44:47.507Z,1001.03
2017-05-19T02:45:48.823Z,1001
2017-05-19T02:46:50.023Z,1000.95
2017-05-19T02:47:51.296Z,1000.93
2017-05-19T02:48:52.521Z,1000.93
2017-05-19T02:49:53.876Z,1000.9
2017-05-19T02:50:55.119Z,1000.84
2017-05-19T02:51:56.366Z,1000.86
2017-05-19T02:52:57.613Z,1000.85
2017-05-19T02:53:58.857Z,1000.83
2017-05-19T02:55:00.097Z,1000.82
2017-05-19T02:56:01.382Z,1000.88
2017-05-19T02:57:02.612Z,1000.93
2017-05-19T02:58:03.882Z,1000.9
2017-05-19T02:59:05.157Z,1000.83
2017-05-19T03:00:06.500Z,1000.81
2017-05-19T03:01:07.843Z,1000.73
2017-05-19T03:02:09.169Z,1000.74
2017-05-19T03:03:10.351Z,1000.68
2017-05-19T03:04:11.587Z,1000.6
2017-05-19T03:05:12.830Z,1000.6
2017-05-19T03:06:14.085Z,1000.56
2017-05-19T03:07:15.421Z,1000.53
2017-05-19T03:08:16.644Z,1000.46
2017-05-19T03:09:17.958Z,1000.4
2017-05-19T03:10:19.224Z,1000.4
2017-05-19T03:11:20.487Z,1000.37
2017-05-19T03:12:21.736Z,1000.34
2017-05-19T03:13:22.977Z,1000.39
2017-05-19T03:14:24.248Z,1000.4
2017-05-19T03:15:25.495Z,1000.48
2017-05-19T03:16:26.747Z,1000.54
2017-05-19T03:17:28.006Z,1000.66
2017-05-19T03:18:29.257Z,1000.69
2017-05-19T03:19:30.656Z,1000.68
2017-05-19T03:20:31.877Z,1000.64
2017-05-19T03:21:33.126Z,1000.68
2017-05-19T03:22:34.365Z,1000.68
2017-05-19T03:23:35.650Z,1000.67
2017-05-19T03:24:36.849Z,1000.64
2017-05-19T03:25:38.150Z,1000.71
2017-05-19T03:26:39.461Z,1000.71
2017-05-19T03:27:40.787Z,1000.74
2017-05-19T03:28:41.950Z,1000.7
2017-05-19T03:29:43.197Z,1000.74
2017-05-19T03:30:44.447Z,1000.71
2017-05-19T03:31:45.792Z,1000.67
2017-05-19T03:32:47.048Z,1000.65
2017-05-19T03:33:48.303Z,1000.73
2017-05-19T03:34:49.642Z,1000.72
2017-05-19T03:35:50.929Z,1000.68
2017-05-19T03:36:52.159Z,1000.63
2017-05-19T03:37:53.416Z,1000.66
2017-05-19T03:38:54.712Z,1000.62
2017-05-19T03:39:55.908Z,1000.65
2017-05-19T03:40:57.148Z,1000.6
2017-05-19T03:41:58.392Z,1000.61
2017-05-19T03:42:59.639Z,1000.65
2017-05-19T03:44:00.879Z,1000.6
2017-05-19T03:45:02.131Z,1000.54
2017-05-19T03:46:03.379Z,1000.57
2017-05-19T03:47:04.637Z,1000.62
2017-05-19T03:48:05.868Z,1000.59
2017-05-19T03:49:07.120Z,1000.55
2017-05-19T03:50:08.344Z,1000.59
2017-05-19T03:51:09.721Z,1000.6
2017-05-19T03:52:10.974Z,1000.57
2017-05-19T03:53:12.238Z,1000.6
2017-05-19T03:54:13.486Z,1000.57
2017-05-19T03:55:14.748Z,1000.61
2017-05-19T03:56:15.974Z,1000.53
2017-05-19T03:57:17.230Z,1000.46
2017-05-19T03:58:18.469Z,1000.47
2017-05-19T03:59:19.716Z,1000.48
2017-05-19T04:00:20.946Z,1000.48
2017-05-19T04:01:22.200Z,1000.53
2017-05-19T04:02:23.454Z,1000.55
2017-05-19T04:03:24.705Z,1000.54
2017-05-19T04:04:25.985Z,1000.58
2017-05-19T04:05:27.236Z,1000.62
2017-05-19T04:06:28.528Z,1000.63
2017-05-19T04:07:29.752Z,1000.62
2017-05-19T04:08:31.005Z,1000.72
2017-05-19T04:09:32.352Z,1000.7
2017-05-19T04:10:33.617Z,1000.74
2017-05-19T04:11:34.857Z,1000.74
2017-05-19T04:12:36.109Z,1000.72
2017-05-19T04:13:37.358Z,1000.74
2017-05-19T04:14:38.596Z,1000.79
2017-05-19T04:15:39.843Z,1000.82
2017-05-19T04:16:41.136Z,1000.82
2017-05-19T04:17:42.385Z,1000.78
2017-05-19T04:18:43.620Z,1000.74
2017-05-19T04:19:44.861Z,1000.71
2017-05-19T04:20:46.118Z,1000.73
2017-05-19T04:21:47.389Z,1000.73
2017-05-19T04:22:48.625Z,1000.73
2017-05-19T04:23:49.959Z,1000.71
2017-05-19T04:24:51.274Z,1000.7
2017-05-19T04:25:52.523Z,1000.72
2017-05-19T04:26:53.796Z,1000.65
2017-05-19T04:27:55.082Z,1000.74
2017-05-19T04:28:56.312Z,1000.71
2017-05-19T04:29:57.687Z,1000.73
2017-05-19T04:30:59.040Z,1000.76
2017-05-19T04:32:00.266Z,1000.79
2017-05-19T04:33:01.518Z,1000.78
2017-05-19T04:34:02.768Z,1000.78
2017-05-19T04:35:04.098Z,1000.77
2017-05-19T04:36:05.345Z,1000.77
2017-05-19T04:37:06.605Z,1000.83
2017-05-19T04:38:07.882Z,1000.85
2017-05-19T04:39:09.115Z,1000.83
2017-05-19T04:40:10.349Z,1000.83
2017-05-19T04:41:11.622Z,1000.88
2017-05-19T04:42:12.861Z,1000.89
2017-05-19T04:43:14.177Z,1000.9
2017-05-19T04:44:15.381Z,1000.85
2017-05-19T04:45:16.625Z,1000.84
2017-05-19T04:46:17.906Z,1000.87
2017-05-19T04:47:19.127Z,1000.88
2017-05-19T04:48:20.435Z,1000.84
2017-05-19T04:49:21.789Z,1000.91
2017-05-19T04:50:23.067Z,1000.91
2017-05-19T04:51:24.285Z,1000.91
2017-05-19T04:52:25.582Z,1000.91
2017-05-19T04:53:26.877Z,1000.97
2017-05-19T04:54:28.167Z,1000.92
2017-05-19T04:55:29.419Z,1000.96
2017-05-19T04:56:30.662Z,1000.95
2017-05-19T04:57:31.899Z,1000.96
2017-05-19T04:58:33.147Z,1000.99
2017-05-19T04:59:34.496Z,1000.96
2017-05-19T05:00:35.913Z,1000.96
2017-05-19T05:01:37.231Z,1000.95
2017-05-19T05:02:38.487Z,1000.94
2017-05-19T05:03:39.721Z,1000.94
2017-05-19T05:04:40.968Z,1000.93
2017-05-19T05:05:42.241Z,1000.93
2017-05-19T05:06:43.526Z,1000.95
2017-05-19T05:07:44.761Z,1000.91
2017-05-19T05:08:46.014Z,1000.97
2017-05-19T05:09:47.273Z,1000.96
2017-05-19T05:10:48.546Z,1000.99
2017-05-19T05:11:49.807Z,1001.03
2017-05-19T05:12:51.071Z,1001.09
2017-05-19T05:13:52.305Z,1001.16
2017-05-19T05:14:53.656Z,1001.19
2017-05-19T05:15:54.907Z,1001.16
2017-05-19T05:16:56.152Z,1001.23
2017-05-19T05:17:57.399Z,1001.26
2017-05-19T05:18:58.638Z,1001.29
2017-05-19T05:20:00.017Z,1001.33
2017-05-19T05:21:01.262Z,1001.32
2017-05-19T05:22:02.507Z,1001.29
2017-05-19T05:23:03.754Z,1001.32
2017-05-19T05:24:05.009Z,1001.35
2017-05-19T05:25:06.251Z,1001.35
2017-05-19T05:26:07.533Z,1001.37
2017-05-19T05:27:08.819Z,1001.32
2017-05-19T05:28:10.059Z,1001.33
2017-05-19T05:29:11.316Z,1001.38
2017-05-19T05:30:12.565Z,1001.42
2017-05-19T05:31:13.861Z,1001.43
2017-05-19T05:32:15.137Z,1001.45
2017-05-19T05:33:16.362Z,1001.48
2017-05-19T05:34:17.672Z,1001.5
2017-05-19T05:35:18.931Z,1001.52
2017-05-19T05:36:20.184Z,1001.51
2017-05-19T05:37:21.483Z,1001.5
2017-05-19T05:38:22.709Z,1001.46
2017-05-19T05:39:24.019Z,1001.53
2017-05-19T05:40:25.267Z,1001.52
2017-05-19T05:41:26.525Z,1001.56
2017-05-19T05:42:27.760Z,1001.62
2017-05-19T05:43:29.003Z,1001.57
2017-05-19T05:44:30.273Z,1001.54
2017-05-19T05:45:31.577Z,1001.62
2017-05-19T05:46:32.820Z,1001.59
2017-05-19T05:47:34.065Z,1001.58
2017-05-19T05:48:35.340Z,1001.64
2017-05-19T05:49:36.605Z,1001.63
2017-05-19T05:50:37.942Z,1001.65
2017-05-19T05:51:39.171Z,1001.6
2017-05-19T05:52:40.458Z,1001.67
2017-05-19T05:53:41.657Z,1001.66
2017-05-19T05:54:42.966Z,1001.7
2017-05-19T05:55:44.181Z,1001.69
2017-05-19T05:56:45.474Z,1001.71
2017-05-19T05:57:46.690Z,1001.69
2017-05-19T05:58:47.930Z,1001.75
2017-05-19T05:59:49.160Z,1001.74
2017-05-19T06:00:50.455Z,1001.74
2017-05-19T06:01:51.709Z,1001.74
2017-05-19T06:02:52.957Z,1001.74
2017-05-19T06:03:54.245Z,1001.72
2017-05-19T06:04:55.567Z,1001.74
2017-05-19T06:05:56.798Z,1001.73
2017-05-19T06:06:58.057Z,1001.78
2017-05-19T06:07:59.299Z,1001.73
2017-05-19T06:09:00.555Z,1001.76
2017-05-19T06:10:01.882Z,1001.72
2017-05-19T06:11:03.173Z,1001.74
2017-05-19T06:12:04.398Z,1001.72
2017-05-19T06:13:05.655Z,1001.75
2017-05-19T06:14:06.912Z,1001.77
2017-05-19T06:15:08.225Z,1001.7
2017-05-19T06:16:09.586Z,1001.73
2017-05-19T06:17:10.825Z,1001.74
2017-05-19T06:18:12.071Z,1001.74
2017-05-19T06:19:13.326Z,1001.77
2017-05-19T06:20:14.618Z,1001.82
2017-05-19T06:21:15.855Z,1001.84
2017-05-19T06:22:17.114Z,1001.83
2017-05-19T06:23:18.349Z,1001.8
2017-05-19T06:24:19.607Z,1001.87
2017-05-19T06:25:20.877Z,1001.9
2017-05-19T06:26:22.135Z,1001.92
2017-05-19T06:27:23.462Z,1001.93
2017-05-19T06:28:24.607Z,1001.92
2017-05-19T06:29:25.913Z,1002.01
2017-05-19T06:30:27.121Z,1001.92
2017-05-19T06:31:28.369Z,1001.95
2017-05-19T06:32:29.617Z,1002.01
2017-05-19T06:33:30.871Z,1002
2017-05-19T06:34:32.131Z,1002
2017-05-19T06:35:33.380Z,1002
2017-05-19T06:36:34.643Z,1002.04
2017-05-19T06:37:35.875Z,1002.04
2017-05-19T06:38:37.173Z,1002.03
2017-05-19T06:39:38.397Z,1002.03
2017-05-19T06:40:39.753Z,1002.02
2017-05-19T06:41:41.072Z,1002.04
2017-05-19T06:42:42.215Z,1002.1
2017-05-19T06:43:43.478Z,1002.06
2017-05-19T06:44:44.754Z,1002.13
2017-05-19T06:45:45.972Z,1002.13
2017-05-19T06:46:47.223Z,1002.12
2017-05-19T06:47:48.482Z,1002.14
2017-05-19T06:48:49.765Z,1002.14
2017-05-19T06:49:51.038Z,1002.12
2017-05-19T06:50:52.274Z,1002.15
2017-05-19T06:51:53.532Z,1002.13
2017-05-19T06:52:54.913Z,1002.13
2017-05-19T06:53:56.216Z,1002.14
2017-05-19T06:54:57.461Z,1002.19
2017-05-19T06:55:58.724Z,1002.16
2017-05-19T06:56:59.969Z,1002.17
2017-05-19T06:58:01.216Z,1002.13
2017-05-19T06:59:02.483Z,1002.16
2017-05-19T07:00:03.806Z,1002.16
2017-05-19T07:01:05.055Z,1002.17
2017-05-19T07:02:06.308Z,1002.2
2017-05-19T07:03:07.552Z,1002.19
2017-05-19T07:04:08.853Z,1002.18
2017-05-19T07:05:10.204Z,1002.18
2017-05-19T07:06:11.526Z,1002.16
2017-05-19T07:07:12.760Z,1002.14
2017-05-19T07:08:14.003Z,1002.16
2017-05-19T07:09:15.235Z,1002.19
2017-05-19T07:10:16.533Z,1002.21
2017-05-19T07:11:17.785Z,1002.18
2017-05-19T07:12:19.045Z,1002.15
2017-05-19T07:13:20.332Z,1002.16
2017-05-19T07:14:21.596Z,1002.18
2017-05-19T07:15:22.853Z,1002.15
2017-05-19T07:16:24.108Z,1002.19
2017-05-19T07:17:25.386Z,1002.16
2017-05-19T07:18:26.620Z,1002.18
2017-05-19T07:19:27.941Z,1002.21
2017-05-19T07:20:29.198Z,1002.17
2017-05-19T07:21:30.541Z,1002.21
2017-05-19T07:22:31.754Z,1002.17
2017-05-19T07:23:33.008Z,1002.22
2017-05-19T07:24:34.394Z,1002.2
2017-05-19T07:25:35.658Z,1002.18
2017-05-19T07:26:36.911Z,1002.18
2017-05-19T07:27:38.150Z,1002.23
2017-05-19T07:28:39.393Z,1002.21
2017-05-19T07:29:40.653Z,1002.2
2017-05-19T07:30:41.956Z,1002.22
2017-05-19T07:31:43.216Z,1002.22
2017-05-19T07:32:44.548Z,1002.19
2017-05-19T07:33:45.734Z,1002.3
2017-05-19T07:34:46.985Z,1002.29
2017-05-19T07:35:48.232Z,1002.33
2017-05-19T07:36:49.521Z,1002.4
2017-05-19T07:37:50.746Z,1002.41
2017-05-19T07:38:51.989Z,1002.43
2017-05-19T07:39:53.265Z,1002.42
2017-05-19T07:40:54.506Z,1002.39
2017-05-19T07:41:55.798Z,1002.46
2017-05-19T07:42:57.060Z,1002.47
2017-05-19T07:43:58.302Z,1002.46
2017-05-19T07:44:59.581Z,1002.47
2017-05-19T07:46:00.812Z,1002.5
2017-05-19T07:47:02.062Z,1002.45
2017-05-19T07:48:03.309Z,1002.54
2017-05-19T07:49:04.597Z,1002.6
2017-05-19T07:50:05.842Z,1002.54
2017-05-19T07:51:07.103Z,1002.54
2017-05-19T07:52:08.357Z,1002.65
2017-05-19T07:53:09.616Z,1002.62
2017-05-19T07:54:10.867Z,1002.64
2017-05-19T07:55:12.244Z,1002.67
2017-05-19T07:56:13.543Z,1002.65
2017-05-19T07:57:14.773Z,1002.63
2017-05-19T07:58:16.036Z,1002.63
2017-05-19T07:59:17.282Z,1002.68
2017-05-19T08:00:18.560Z,1002.7
2017-05-19T08:01:19.870Z,1002.74
2017-05-19T08:02:21.126Z,1002.72
2017-05-19T08:03:22.368Z,1002.78
2017-05-19T08:04:23.673Z,1002.76
2017-05-19T08:05:24.914Z,1002.77
2017-05-19T08:06:26.178Z,1002.79
2017-05-19T08:07:27.466Z,1002.74
2017-05-19T08:08:28.707Z,1002.81
2017-05-19T08:09:29.960Z,1002.82
2017-05-19T08:10:31.220Z,1002.86
2017-05-19T08:11:32.473Z,1002.82
2017-05-19T08:12:33.725Z,1002.88
2017-05-19T08:13:34.961Z,1002.87
2017-05-19T08:14:36.230Z,1002.85
2017-05-19T08:15:37.478Z,1002.9
2017-05-19T08:16:38.724Z,1002.93
2017-05-19T08:17:39.995Z,1002.97
2017-05-19T08:18:41.261Z,1003.01
2017-05-19T08:19:42.501Z,1003.02
2017-05-19T08:20:43.790Z,1003.01
2017-05-19T08:21:45.086Z,1003
2017-05-19T08:22:46.314Z,1003.01
2017-05-19T08:23:47.591Z,1003.01
2017-05-19T08:24:48.829Z,1003.05
2017-05-19T08:25:50.179Z,1003.04
2017-05-19T08:26:51.440Z,1003.07
2017-05-19T08:27:52.679Z,1003.09
2017-05-19T08:28:53.933Z,1003.04
2017-05-19T08:29:55.174Z,1003.08
2017-05-19T08:30:56.455Z,1003.11
2017-05-19T08:31:57.717Z,1003.13
2017-05-19T08:32:58.964Z,1003.13
2017-05-19T08:34:00.211Z,1003.16
2017-05-19T08:35:01.458Z,1003.11
2017-05-19T08:36:02.700Z,1003.1
2017-05-19T08:37:03.971Z,1003.09
2017-05-19T08:38:05.241Z,1003.11
2017-05-19T08:39:06.588Z,1003.13
2017-05-19T08:40:07.843Z,1003.13
2017-05-19T08:41:09.110Z,1003.17
2017-05-19T08:42:10.352Z,1003.16
2017-05-19T08:43:11.633Z,1003.17
2017-05-19T08:44:12.898Z,1003.18
2017-05-19T08:45:14.170Z,1003.18
2017-05-19T08:46:15.411Z,1003.18
2017-05-19T08:47:16.662Z,1003.2
2017-05-19T08:48:17.942Z,1003.21
2017-05-19T08:49:19.188Z,1003.18
2017-05-19T08:50:20.452Z,1003.2
2017-05-19T08:51:21.737Z,1003.24
2017-05-19T08:52:22.952Z,1003.23
2017-05-19T08:53:24.250Z,1003.24
2017-05-19T08:54:25.574Z,1003.28
2017-05-19T08:55:26.820Z,1003.28
2017-05-19T08:56:28.133Z,1003.29
2017-05-19T08:57:29.434Z,1003.31
2017-05-19T08:58:30.656Z,1003.31
2017-05-19T08:59:31.987Z,1003.33
2017-05-19T09:00:33.224Z,1003.35
2017-05-19T09:01:34.477Z,1003.36
2017-05-19T09:02:35.724Z,1003.44
2017-05-19T09:03:36.973Z,1003.41
2017-05-19T09:04:38.284Z,1003.42
2017-05-19T09:05:39.571Z,1003.41
2017-05-19T09:06:40.797Z,1003.47
2017-05-19T09:07:42.050Z,1003.42
2017-05-19T09:08:43.327Z,1003.39
2017-05-19T09:09:44.562Z,1003.47
2017-05-19T09:10:45.853Z,1003.44
2017-05-19T09:11:47.115Z,1003.49
2017-05-19T09:12:48.365Z,1003.46
2017-05-19T09:13:49.665Z,1003.46
2017-05-19T09:14:50.932Z,1003.53
2017-05-19T09:15:52.293Z,1003.48
2017-05-19T09:16:53.530Z,1003.51
2017-05-19T09:17:54.768Z,1003.48
2017-05-19T09:18:56.035Z,1003.5
2017-05-19T09:19:57.263Z,1003.46
2017-05-19T09:20:58.524Z,1003.51
2017-05-19T09:21:59.789Z,1003.5
2017-05-19T09:23:01.060Z,1003.5
2017-05-19T09:24:02.332Z,1003.48
2017-05-19T09:25:03.563Z,1003.45
2017-05-19T09:26:04.823Z,1003.41
2017-05-19T09:27:06.080Z,1003.31
2017-05-19T09:28:07.330Z,1003.34
2017-05-19T09:29:08.632Z,1003.37
2017-05-19T09:30:09.873Z,1003.31
2017-05-19T09:31:11.108Z,1003.27
2017-05-19T09:32:12.372Z,1003.28
2017-05-19T09:33:13.605Z,1003.18
2017-05-19T09:34:14.914Z,1003.23
2017-05-19T09:35:16.248Z,1003.15
2017-05-19T09:36:17.484Z,1003.22
2017-05-19T09:37:18.751Z,1003.16
2017-05-19T09:38:19.994Z,1003.17
2017-05-19T09:39:21.242Z,1003.15
2017-05-19T09:40:22.542Z,1003.12
2017-05-19T09:41:23.801Z,1003.1
2017-05-19T09:42:25.049Z,1003.05
2017-05-19T09:43:26.302Z,1002.99
2017-05-19T09:44:27.619Z,1003
2017-05-19T09:45:28.874Z,1003.01
2017-05-19T09:46:30.116Z,1002.98
2017-05-19T09:47:31.378Z,1003.08
2017-05-19T09:48:32.642Z,1003.05
2017-05-19T09:49:33.899Z,1003.09
2017-05-19T09:50:35.149Z,1003.08
2017-05-19T09:51:36.421Z,1003.11
2017-05-19T09:52:37.708Z,1003.11
2017-05-19T09:53:39.002Z,1003.09
2017-05-19T09:54:40.258Z,1003.12
2017-05-19T09:55:41.611Z,1003.11
2017-05-19T09:56:42.857Z,1003.16
2017-05-19T09:57:44.100Z,1003.16
2017-05-19T09:58:45.341Z,1003.18
2017-05-19T09:59:46.593Z,1003.2
2017-05-19T10:00:47.904Z,1003.21
2017-05-19T10:01:49.160Z,1003.18
2017-05-19T10:02:50.414Z,1003.18
2017-05-19T10:03:51.651Z,1003.15
2017-05-19T10:04:52.918Z,1003.16
2017-05-19T10:05:54.244Z,1003.14
2017-05-19T10:06:55.696Z,1003.17
2017-05-19T10:07:56.955Z,1003.11
2017-05-19T10:08:58.216Z,1003.14
2017-05-19T10:09:59.483Z,1003.13
2017-05-19T10:11:00.701Z,1003.15
2017-05-19T10:12:02.018Z,1003.15
2017-05-19T10:13:03.249Z,1003.17
2017-05-19T10:14:04.507Z,1003.2
2017-05-19T10:15:05.768Z,1003.18
2017-05-19T10:16:07.023Z,1003.21
2017-05-19T10:17:08.289Z,1003.23
2017-05-19T10:18:09.639Z,1003.21
2017-05-19T10:19:10.892Z,1003.2
2017-05-19T10:20:12.131Z,1003.22
2017-05-19T10:21:13.371Z,1003.28
2017-05-19T10:22:14.625Z,1003.26
2017-05-19T10:23:15.952Z,1003.29
2017-05-19T10:24:17.213Z,1003.28
2017-05-19T10:25:18.430Z,1003.36
2017-05-19T10:26:19.678Z,1003.34
2017-05-19T10:27:20.957Z,1003.36
2017-05-19T10:28:22.201Z,1003.36
2017-05-19T10:29:23.456Z,1003.4
2017-05-19T10:30:24.742Z,1003.41
2017-05-19T10:31:26.072Z,1003.41
2017-05-19T10:32:27.339Z,1003.37
2017-05-19T10:33:28.591Z,1003.36
2017-05-19T10:34:29.840Z,1003.35
2017-05-19T10:35:31.095Z,1003.36
2017-05-19T10:36:32.402Z,1003.37
2017-05-19T10:37:33.690Z,1003.38
2017-05-19T10:38:34.975Z,1003.38
2017-05-19T10:39:36.272Z,1003.31
2017-05-19T10:40:37.510Z,1003.3
2017-05-19T10:41:38.767Z,1003.31
2017-05-19T10:42:40.104Z,1003.33
2017-05-19T10:43:41.357Z,1003.34
2017-05-19T10:44:42.608Z,1003.38
2017-05-19T10:45:43.869Z,1003.39
2017-05-19T10:46:45.102Z,1003.36
2017-05-19T10:47:46.421Z,1003.35
2017-05-19T10:48:47.677Z,1003.35
2017-05-19T10:49:48.932Z,1003.37
2017-05-19T10:50:50.255Z,1003.38
2017-05-19T10:51:51.504Z,1003.35
2017-05-19T10:52:52.780Z,1003.35
2017-05-19T10:53:54.016Z,1003.28
2017-05-19T10:54:55.277Z,1003.25
2017-05-19T10:55:56.551Z,1003.3
2017-05-19T10:56:57.813Z,1003.31
2017-05-19T10:57:59.064Z,1003.35
2017-05-19T10:59:00.357Z,1003.29
2017-05-19T11:00:01.582Z,1003.28
2017-05-19T11:01:02.828Z,1003.24
2017-05-19T11:02:04.107Z,1003.28
2017-05-19T11:03:05.539Z,1003.3
2017-05-19T11:04:06.784Z,1003.28
2017-05-19T11:05:08.022Z,1003.25
2017-05-19T11:06:09.266Z,1003.22
2017-05-19T11:07:10.553Z,1003.26
2017-05-19T11:08:11.860Z,1003.19
2017-05-19T11:09:13.053Z,1003.22
2017-05-19T11:10:14.318Z,1003.18
2017-05-19T11:11:15.573Z,1003.14
2017-05-19T11:12:16.838Z,1003.18
2017-05-19T11:13:18.190Z,1003.17
2017-05-19T11:14:19.518Z,1003.2
2017-05-19T11:15:20.772Z,1003.19
2017-05-19T11:16:22.026Z,1003.16
2017-05-19T11:17:23.281Z,1003.21
2017-05-19T11:18:24.566Z,1003.18
2017-05-19T11:19:25.835Z,1003.1
2017-05-19T11:20:27.116Z,1003.13
2017-05-19T11:21:28.331Z,1003.09
2017-05-19T11:22:29.670Z,1003.14
2017-05-19T11:23:30.906Z,1003.17
2017-05-19T11:24:32.188Z,1003.22
2017-05-19T11:25:33.438Z,1003.24
2017-05-19T11:26:34.757Z,1003.26
2017-05-19T11:27:36.139Z,1003.21
2017-05-19T11:28:37.393Z,1003.23
2017-05-19T11:29:38.761Z,1003.17
2017-05-19T11:30:40.021Z,1003.17
2017-05-19T11:31:41.300Z,1003.2
2017-05-19T11:32:42.546Z,1003.16
2017-05-19T11:33:43.855Z,1003.1
2017-05-19T11:34:45.050Z,1003.07
2017-05-19T11:35:46.418Z,1003.1
2017-05-19T11:36:47.662Z,1003.08
2017-05-19T11:37:48.902Z,1003.1
2017-05-19T11:38:50.223Z,1003.16
2017-05-19T11:39:51.495Z,1003.17
2017-05-19T11:40:52.733Z,1003.17
2017-05-19T11:41:54.154Z,1003.18
2017-05-19T11:42:55.294Z,1003.21
2017-05-19T11:43:56.551Z,1003.23
2017-05-19T11:44:57.796Z,1003.25
2017-05-19T11:45:59.039Z,1003.27
2017-05-19T11:47:00.285Z,1003.33
2017-05-19T11:48:01.526Z,1003.38
2017-05-19T11:49:02.781Z,1003.37
2017-05-19T11:50:04.050Z,1003.43
2017-05-19T11:51:05.376Z,1003.45
2017-05-19T11:52:06.628Z,1003.44
2017-05-19T11:53:07.919Z,1003.45
2017-05-19T11:54:09.204Z,1003.46
2017-05-19T11:55:10.605Z,1003.5
2017-05-19T11:56:11.906Z,1003.5
2017-05-19T11:57:13.221Z,1003.49
2017-05-19T11:58:14.453Z,1003.55
2017-05-19T11:59:15.713Z,1003.56
2017-05-19T12:00:17.068Z,1003.59
2017-05-19T12:01:18.337Z,1003.67
2017-05-19T12:02:19.578Z,1003.7
2017-05-19T12:03:20.822Z,1003.76
2017-05-19T12:04:22.098Z,1003.76
2017-05-19T12:05:23.319Z,1003.75
2017-05-19T12:06:24.648Z,1003.78
2017-05-19T12:07:25.929Z,1003.77
2017-05-19T12:08:27.180Z,1003.82
2017-05-19T12:09:28.458Z,1003.79
2017-05-19T12:10:29.680Z,1003.8
2017-05-19T12:11:30.962Z,1003.79
2017-05-19T12:12:32.192Z,1003.83
2017-05-19T12:13:33.460Z,1003.82
2017-05-19T12:14:34.749Z,1003.83
2017-05-19T12:15:36.002Z,1003.85
2017-05-19T12:16:37.252Z,1003.9
2017-05-19T12:17:38.527Z,1003.85
2017-05-19T12:18:39.749Z,1003.85
2017-05-19T12:19:41.008Z,1003.89
2017-05-19T12:20:42.257Z,1003.86
2017-05-19T12:21:43.522Z,1003.9
2017-05-19T12:22:44.752Z,1003.85
2017-05-19T12:23:46.032Z,1003.82